Time;durP1;ratioP1;P1;durP2;ratioP2;P2;SDS_P1;SDS_P2;PMS_P1;PMS_P2;Temp;Humidity;BMP_temperature;BMP_pressure;BME280_temperature;BME280_humidity;BME280_pressure;Samples;Min_cycle;Max_cycle;Signal;HPM_P1;HPM_P2
2023/12/28 00:00:04;;;;;;;;;;;14.70;62.20;;;;;;10352369;28;94512;-62
2023/12/28 00:05:05;;;;;;;;;;;14.70;62.50;;;;;;10367280;28;94028;-62
2023/12/28 00:10:07;;;;;;;;;;;14.70;62.60;;;;;;10367859;28;95864;-62
2023/12/28 00:15:09;;;;;;;;;;;14.70;62.50;;;;;;10369226;28;93786;-62
2023/12/28 00:20:11;;;;;;;;;;;14.70;62.20;;;;;;10352635;28;93617;-62
2023/12/28 00:25:13;;;;;;;;;;;14.80;62.00;;;;;;10359241;28;93818;-62
2023/12/28 00:30:17;;;;;;;;;;;14.80;61.60;;;;;;10364579;28;94417;-62
2023/12/28 00:35:19;;;;;;;;;;;14.80;61.40;;;;;;10374120;28;92828;-61
2023/12/28 00:40:21;;;;;;;;;;;14.80;61.20;;;;;;10372820;28;93548;-61
2023/12/28 00:45:23;;;;;;;;;;;14.80;60.90;;;;;;10367053;28;92763;-61
2023/12/28 00:50:27;;;;;;;;;;;14.80;60.90;;;;;;10369533;28;93999;-62
2023/12/28 00:55:29;;;;;;;;;;;14.80;61.10;;;;;;10368739;28;93596;-62
2023/12/28 01:00:30;;;;;;;;;;;14.70;61.60;;;;;;10366024;28;97124;-61
2023/12/28 01:05:32;;;;;;;;;;;14.70;61.70;;;;;;10361961;28;94298;-61
2023/12/28 01:10:34;;;;;;;;;;;14.70;61.50;;;;;;10343243;28;94531;-62
2023/12/28 01:15:36;;;;;;;;;;;14.70;61.30;;;;;;10359921;28;94365;-62
2023/12/28 01:20:38;;;;;;;;;;;14.70;61.00;;;;;;10367875;28;94023;-62
2023/12/28 01:25:39;;;;;;;;;;;14.70;60.90;;;;;;10367317;28;94812;-62
2023/12/28 01:30:41;;;;;;;;;;;14.70;60.70;;;;;;10367125;28;93791;-62
2023/12/28 01:35:43;;;;;;;;;;;14.70;60.50;;;;;;10367737;28;93016;-62
2023/12/28 01:40:45;;;;;;;;;;;14.70;60.40;;;;;;10363459;28;94428;-62
2023/12/28 01:45:47;;;;;;;;;;;14.70;60.30;;;;;;10361265;28;94225;-62
2023/12/28 01:50:49;;;;;;;;;;;14.70;60.80;;;;;;10346524;28;96030;-62
2023/12/28 01:55:51;;;;;;;;;;;14.70;61.40;;;;;;10367581;28;94038;-62
2023/12/28 02:06:16;;;;;;;;;;;14.70;61.40;;;;;;10296637;22;94764;-44
2023/12/28 02:11:18;;;;;;;;;;;14.70;61.00;;;;;;10219902;28;94180;-47
2023/12/28 02:16:31;;;;;;;;;;;14.70;60.80;;;;;;10225427;28;94922;-43
2023/12/28 02:21:33;;;;;;;;;;;14.70;60.50;;;;;;10217199;28;93292;-42
2023/12/28 02:26:35;;;;;;;;;;;14.70;60.30;;;;;;10230175;28;92531;-43
2023/12/28 02:31:44;;;;;;;;;;;14.70;60.20;;;;;;10240164;28;93511;-46
2023/12/28 02:36:47;;;;;;;;;;;14.70;60.10;;;;;;10238836;28;93470;-45
2023/12/28 02:41:49;;;;;;;;;;;14.70;60.10;;;;;;10239108;28;95840;-45
2023/12/28 02:46:51;;;;;;;;;;;14.70;60.30;;;;;;10228387;28;94618;-44
2023/12/28 02:51:53;;;;;;;;;;;14.70;61.00;;;;;;10234534;28;93463;-42
2023/12/28 02:56:54;;;;;;;;;;;14.70;61.00;;;;;;10225187;28;93500;-46
2023/12/28 03:01:56;;;;;;;;;;;14.70;60.80;;;;;;10228137;28;94357;-44
2023/12/28 03:06:58;;;;;;;;;;;14.70;60.70;;;;;;10217596;28;93490;-42
2023/12/28 03:12:00;;;;;;;;;;;14.70;60.40;;;;;;10245963;28;94735;-49
2023/12/28 03:17:01;;;;;;;;;;;14.70;60.30;;;;;;10224740;28;92520;-42
2023/12/28 03:22:03;;;;;;;;;;;14.70;60.10;;;;;;10227920;28;93610;-45
2023/12/28 03:27:05;;;;;;;;;;;14.70;60.00;;;;;;10207975;28;93419;-43
2023/12/28 03:32:07;;;;;;;;;;;14.70;59.90;;;;;;10222882;28;95863;-44
2023/12/28 03:37:10;;;;;;;;;;;14.70;60.00;;;;;;10235970;28;96665;-46
2023/12/28 03:42:13;;;;;;;;;;;14.60;60.30;;;;;;10232137;28;94386;-46
2023/12/28 03:47:15;;;;;;;;;;;14.60;60.90;;;;;;10235490;28;93790;-44
2023/12/28 03:52:17;;;;;;;;;;;14.60;60.70;;;;;;10223038;28;93438;-43
2023/12/28 03:57:19;;;;;;;;;;;14.60;60.50;;;;;;10232294;28;93938;-46
2023/12/28 04:02:21;;;;;;;;;;;14.60;60.30;;;;;;10223351;28;94529;-43
2023/12/28 04:07:23;;;;;;;;;;;14.70;60.20;;;;;;10246370;28;92757;-43
2023/12/28 04:12:25;;;;;;;;;;;14.70;60.00;;;;;;10226652;28;94514;-43
2023/12/28 04:17:26;;;;;;;;;;;14.70;59.90;;;;;;10231016;28;93542;-44
2023/12/28 04:22:28;;;;;;;;;;;14.70;59.80;;;;;;10231496;28;96964;-45
2023/12/28 04:27:30;;;;;;;;;;;14.70;59.60;;;;;;10221334;28;94745;-45
2023/12/28 04:32:32;;;;;;;;;;;14.70;60.00;;;;;;10227860;28;93546;-45
2023/12/28 04:37:35;;;;;;;;;;;14.70;60.20;;;;;;10225520;28;94717;-42
2023/12/28 04:42:36;;;;;;;;;;;14.70;60.80;;;;;;10230821;28;94419;-46
2023/12/28 04:47:38;;;;;;;;;;;14.70;60.90;;;;;;10220560;28;94452;-42
2023/12/28 04:52:40;;;;;;;;;;;14.70;61.10;;;;;;10244208;28;95282;-42
2023/12/28 04:57:42;;;;;;;;;;;14.70;61.20;;;;;;10240077;28;92714;-43
2023/12/28 05:02:44;;;;;;;;;;;14.70;61.40;;;;;;10238308;28;94359;-42
2023/12/28 05:07:46;;;;;;;;;;;14.70;61.50;;;;;;10244327;28;93802;-42
2023/12/28 05:12:48;;;;;;;;;;;14.70;61.60;;;;;;10235806;28;97916;-43
2023/12/28 05:17:50;;;;;;;;;;;14.70;61.70;;;;;;10243846;28;93523;-44
2023/12/28 05:22:52;;;;;;;;;;;14.70;61.80;;;;;;10231816;28;94481;-43
2023/12/28 05:27:54;;;;;;;;;;;14.70;61.80;;;;;;10228708;28;93526;-57
2023/12/28 05:32:56;;;;;;;;;;;14.60;61.90;;;;;;10220358;28;93433;-45
2023/12/28 05:37:57;;;;;;;;;;;14.70;62.00;;;;;;10219562;28;94116;-43
2023/12/28 05:43:00;;;;;;;;;;;14.60;62.00;;;;;;10226075;28;94549;-42
2023/12/28 05:48:01;;;;;;;;;;;14.60;62.10;;;;;;10233509;28;94085;-42
2023/12/28 05:53:04;;;;;;;;;;;14.60;62.20;;;;;;10221737;28;93232;-42
2023/12/28 05:58:06;;;;;;;;;;;14.60;62.30;;;;;;10221882;28;94100;-42
2023/12/28 06:03:08;;;;;;;;;;;14.60;62.30;;;;;;10218204;28;96254;-43
2023/12/28 06:08:11;;;;;;;;;;;14.60;62.50;;;;;;10240885;28;93538;-46
2023/12/28 06:13:13;;;;;;;;;;;14.60;62.50;;;;;;10218835;28;94459;-45
2023/12/28 06:18:14;;;;;;;;;;;14.60;62.70;;;;;;10205498;28;93432;-43
2023/12/28 06:23:16;;;;;;;;;;;14.60;62.70;;;;;;10225979;28;93316;-48
2023/12/28 06:28:18;;;;;;;;;;;14.60;62.70;;;;;;10210941;28;93889;-46
2023/12/28 06:33:20;;;;;;;;;;;14.60;62.70;;;;;;10231277;28;93422;-41
2023/12/28 06:38:21;;;;;;;;;;;14.60;62.70;;;;;;10223270;28;92667;-44
2023/12/28 06:43:23;;;;;;;;;;;14.60;62.70;;;;;;10230825;28;94418;-42
2023/12/28 06:48:26;;;;;;;;;;;14.60;62.80;;;;;;10231355;28;93476;-45
2023/12/28 06:53:28;;;;;;;;;;;14.60;62.80;;;;;;10221018;28;96475;-41
2023/12/28 06:58:30;;;;;;;;;;;14.60;62.90;;;;;;10222970;28;94460;-44
2023/12/28 07:03:32;;;;;;;;;;;14.60;62.80;;;;;;10211521;28;93438;-42
2023/12/28 07:08:35;;;;;;;;;;;14.60;62.90;;;;;;10229877;28;93772;-44
2023/12/28 07:13:38;;;;;;;;;;;14.60;62.90;;;;;;10228129;28;95374;-42
2023/12/28 07:18:40;;;;;;;;;;;14.60;63.00;;;;;;10235589;28;94610;-44
2023/12/28 07:23:43;;;;;;;;;;;14.60;63.10;;;;;;10221556;28;93496;-42
2023/12/28 07:28:47;;;;;;;;;;;14.60;63.10;;;;;;10224576;28;93696;-45
2023/12/28 07:33:49;;;;;;;;;;;14.60;63.20;;;;;;10235091;28;93799;-44
2023/12/28 07:38:51;;;;;;;;;;;14.60;63.20;;;;;;10238399;28;92735;-46
2023/12/28 07:43:53;;;;;;;;;;;14.50;63.20;;;;;;10229500;28;96737;-44
2023/12/28 07:48:54;;;;;;;;;;;14.50;63.40;;;;;;10214108;28;93628;-44
2023/12/28 07:53:57;;;;;;;;;;;14.50;63.40;;;;;;10233596;28;93395;-44
2023/12/28 07:58:59;;;;;;;;;;;14.50;63.40;;;;;;10241912;28;93855;-48
2023/12/28 08:04:01;;;;;;;;;;;14.60;63.40;;;;;;10235269;28;93569;-43
2023/12/28 08:09:03;;;;;;;;;;;14.60;63.40;;;;;;10235341;28;93789;-43
2023/12/28 08:14:05;;;;;;;;;;;14.60;63.40;;;;;;10229329;28;93463;-43
2023/12/28 08:19:07;;;;;;;;;;;14.60;63.40;;;;;;10222057;28;93871;-47
2023/12/28 08:24:09;;;;;;;;;;;14.60;63.50;;;;;;10234952;28;94567;-42
2023/12/28 08:29:11;;;;;;;;;;;14.60;63.40;;;;;;10244072;28;93665;-42
2023/12/28 08:34:13;;;;;;;;;;;14.60;63.40;;;;;;10244575;28;95855;-48
2023/12/28 08:39:15;;;;;;;;;;;14.60;63.50;;;;;;10235475;28;93466;-50
2023/12/28 08:44:17;;;;;;;;;;;14.60;63.50;;;;;;10219517;28;94595;-44
2023/12/28 08:49:18;;;;;;;;;;;14.60;63.50;;;;;;10211795;28;93824;-46
2023/12/28 08:54:20;;;;;;;;;;;14.60;63.50;;;;;;10241831;28;93402;-43
2023/12/28 08:59:22;;;;;;;;;;;14.60;63.50;;;;;;10241163;28;94340;-45
2023/12/28 09:04:24;;;;;;;;;;;14.60;63.50;;;;;;10220833;28;94644;-44
2023/12/28 09:09:25;;;;;;;;;;;14.60;63.50;;;;;;10235808;28;93130;-44
2023/12/28 09:14:27;;;;;;;;;;;14.60;63.50;;;;;;10223826;28;94472;-44
2023/12/28 09:19:29;;;;;;;;;;;14.60;63.60;;;;;;10224136;28;94446;-46
2023/12/28 09:24:31;;;;;;;;;;;14.60;63.60;;;;;;10242907;28;97332;-44
2023/12/28 09:29:34;;;;;;;;;;;14.60;63.70;;;;;;10227955;28;94043;-48
2023/12/28 09:34:36;;;;;;;;;;;14.60;63.70;;;;;;10237907;28;94345;-42
2023/12/28 09:39:38;;;;;;;;;;;14.60;63.70;;;;;;10232696;28;93099;-47
2023/12/28 09:44:40;;;;;;;;;;;14.60;63.70;;;;;;10243069;28;93930;-44
2023/12/28 09:49:43;;;;;;;;;;;14.70;63.70;;;;;;10219683;28;93307;-42
2023/12/28 09:54:44;;;;;;;;;;;14.70;63.60;;;;;;10220397;28;93982;-45
2023/12/28 09:59:46;;;;;;;;;;;14.70;63.60;;;;;;10220789;28;93822;-45
2023/12/28 10:04:48;;;;;;;;;;;14.70;63.70;;;;;;10236503;28;94226;-43
2023/12/28 10:09:49;;;;;;;;;;;14.70;63.80;;;;;;10219532;28;94655;-43
2023/12/28 10:14:51;;;;;;;;;;;14.70;63.80;;;;;;10233798;28;96323;-44
2023/12/28 10:19:53;;;;;;;;;;;14.60;63.70;;;;;;10218433;28;93456;-42
2023/12/28 10:24:55;;;;;;;;;;;14.60;63.80;;;;;;10252431;28;93718;-44
2023/12/28 10:29:57;;;;;;;;;;;14.60;63.90;;;;;;10221952;28;92707;-46
2023/12/28 10:34:59;;;;;;;;;;;14.60;63.90;;;;;;10225427;28;93625;-42
2023/12/28 10:40:05;;;;;;;;;;;14.60;63.90;;;;;;10219263;28;93403;-46
2023/12/28 10:45:09;;;;;;;;;;;14.60;64.00;;;;;;10239160;28;94636;-42
2023/12/28 10:50:11;;;;;;;;;;;14.60;64.00;;;;;;10248043;28;93706;-42
2023/12/28 10:55:32;;;;;;;;;;;14.60;64.10;;;;;;10249473;28;93478;-43
2023/12/28 11:00:36;;;;;;;;;;;14.60;64.10;;;;;;10225793;28;93455;-42
2023/12/28 11:05:40;;;;;;;;;;;14.60;64.20;;;;;;10222969;28;96224;-48
2023/12/28 11:10:42;;;;;;;;;;;14.50;64.20;;;;;;10253585;28;94531;-43
2023/12/28 11:15:45;;;;;;;;;;;14.60;64.30;;;;;;10227217;28;94477;-43
2023/12/28 11:20:48;;;;;;;;;;;14.50;64.20;;;;;;10233968;28;94840;-42
2023/12/28 11:25:50;;;;;;;;;;;14.60;64.30;;;;;;10236861;28;94556;-44
2023/12/28 11:30:51;;;;;;;;;;;14.60;64.30;;;;;;10225196;28;94307;-45
2023/12/28 11:35:54;;;;;;;;;;;14.60;64.40;;;;;;10239899;28;94782;-46
2023/12/28 11:40:57;;;;;;;;;;;14.50;64.40;;;;;;10233084;28;93912;-44
2023/12/28 11:46:00;;;;;;;;;;;14.60;64.50;;;;;;10240255;28;94649;-45
2023/12/28 11:51:02;;;;;;;;;;;14.60;64.50;;;;;;10210213;28;94029;-43
2023/12/28 11:56:09;;;;;;;;;;;14.50;64.50;;;;;;10232309;28;96831;-43
2023/12/28 12:01:10;;;;;;;;;;;14.50;64.60;;;;;;10209005;28;93518;-47
2023/12/28 12:06:12;;;;;;;;;;;14.50;64.50;;;;;;10226751;28;94456;-45
2023/12/28 12:11:16;;;;;;;;;;;14.60;64.60;;;;;;10233794;28;94097;-48
2023/12/28 12:16:18;;;;;;;;;;;14.60;64.60;;;;;;10221325;28;96061;-44
2023/12/28 12:21:20;;;;;;;;;;;14.60;64.70;;;;;;10214930;28;93661;-45
2023/12/28 12:26:21;;;;;;;;;;;14.60;64.60;;;;;;10234805;28;93951;-44
2023/12/28 12:31:24;;;;;;;;;;;14.60;64.60;;;;;;10219715;28;93459;-46
2023/12/28 12:36:26;;;;;;;;;;;14.60;64.60;;;;;;10245140;28;95655;-43
2023/12/28 12:41:27;;;;;;;;;;;14.60;64.60;;;;;;10223637;28;94014;-43
2023/12/28 12:46:30;;;;;;;;;;;14.60;64.60;;;;;;10220034;28;96860;-46
2023/12/28 12:51:31;;;;;;;;;;;14.60;64.60;;;;;;10226117;28;94536;-43
2023/12/28 12:56:33;;;;;;;;;;;14.60;64.70;;;;;;10219905;28;94440;-45
2023/12/28 13:01:35;;;;;;;;;;;14.60;64.70;;;;;;10222492;28;94481;-43
2023/12/28 13:06:38;;;;;;;;;;;14.60;64.70;;;;;;10226532;28;94168;-43
2023/12/28 13:11:39;;;;;;;;;;;14.60;64.70;;;;;;10234799;28;94136;-44
2023/12/28 13:16:41;;;;;;;;;;;14.60;64.70;;;;;;10225537;28;96244;-45
2023/12/28 13:21:43;;;;;;;;;;;14.60;64.70;;;;;;10233296;28;92807;-46
2023/12/28 13:26:45;;;;;;;;;;;14.60;64.60;;;;;;10232988;28;93512;-44
2023/12/28 13:31:50;;;;;;;;;;;14.70;64.70;;;;;;10229863;28;94554;-44
2023/12/28 13:36:53;;;;;;;;;;;14.70;64.60;;;;;;10219337;28;96764;-44
2023/12/28 13:41:55;;;;;;;;;;;14.60;64.60;;;;;;10216516;28;94493;-44
2023/12/28 13:46:57;;;;;;;;;;;14.60;64.60;;;;;;10232922;28;95083;-46
2023/12/28 13:51:58;;;;;;;;;;;14.60;64.60;;;;;;10244621;28;93487;-48
2023/12/28 13:57:00;;;;;;;;;;;14.60;64.60;;;;;;10225684;28;94604;-45
2023/12/28 14:02:03;;;;;;;;;;;14.60;64.60;;;;;;10212586;28;95096;-47
2023/12/28 14:07:05;;;;;;;;;;;14.60;64.70;;;;;;10242059;28;93988;-49
2023/12/28 14:12:07;;;;;;;;;;;14.70;64.70;;;;;;10230725;28;93306;-44
2023/12/28 14:17:09;;;;;;;;;;;14.60;64.60;;;;;;10230571;28;93495;-43
2023/12/28 14:22:11;;;;;;;;;;;14.60;64.70;;;;;;10231142;28;93921;-43
2023/12/28 14:27:13;;;;;;;;;;;14.60;64.70;;;;;;10230019;28;96212;-44
2023/12/28 14:32:14;;;;;;;;;;;14.60;64.70;;;;;;10231970;28;94444;-45
2023/12/28 14:37:16;;;;;;;;;;;14.60;64.90;;;;;;10205956;28;93888;-43
2023/12/28 14:42:18;;;;;;;;;;;14.60;64.90;;;;;;10223353;28;94451;-43
2023/12/28 14:47:20;;;;;;;;;;;14.60;64.90;;;;;;10216140;28;93404;-45
2023/12/28 14:52:24;;;;;;;;;;;14.60;64.80;;;;;;10223548;28;94815;-43
2023/12/28 14:57:26;;;;;;;;;;;14.60;64.90;;;;;;10236148;28;94610;-43
2023/12/28 15:02:28;;;;;;;;;;;14.60;64.90;;;;;;10233779;28;94075;-44
2023/12/28 15:07:29;;;;;;;;;;;14.60;64.80;;;;;;10220754;28;92897;-43
2023/12/28 15:12:31;;;;;;;;;;;14.60;64.70;;;;;;10238129;28;94526;-45
2023/12/28 15:17:33;;;;;;;;;;;14.60;64.70;;;;;;10216347;28;96245;-44
2023/12/28 15:22:35;;;;;;;;;;;14.60;64.70;;;;;;10229247;28;93972;-45
2023/12/28 15:27:38;;;;;;;;;;;14.60;64.80;;;;;;10217153;28;94647;-45
2023/12/28 15:32:40;;;;;;;;;;;14.60;64.90;;;;;;10240676;28;94661;-44
2023/12/28 15:37:41;;;;;;;;;;;14.60;64.80;;;;;;10237544;28;94080;-44
2023/12/28 15:42:43;;;;;;;;;;;14.60;64.90;;;;;;10241357;28;93760;-42
2023/12/28 15:47:50;;;;;;;;;;;14.60;64.80;;;;;;10229460;28;93507;-44
2023/12/28 15:52:52;;;;;;;;;;;14.60;64.90;;;;;;10230652;28;93800;-44
2023/12/28 15:57:54;;;;;;;;;;;14.60;64.90;;;;;;10234830;28;94415;-43
2023/12/28 16:02:55;;;;;;;;;;;14.60;65.00;;;;;;10225980;28;93495;-46
2023/12/28 16:07:57;;;;;;;;;;;14.50;64.80;;;;;;10213205;28;96215;-44
2023/12/28 16:12:59;;;;;;;;;;;14.50;65.80;;;;;;10235200;28;95319;-42
2023/12/28 16:18:01;;;;;;;;;;;14.50;64.80;;;;;;10248204;28;93655;-44
2023/12/28 16:23:04;;;;;;;;;;;14.50;64.90;;;;;;10235471;28;94522;-42
2023/12/28 16:28:06;;;;;;;;;;;14.50;64.90;;;;;;10238560;28;94293;-42
2023/12/28 16:33:12;;;;;;;;;;;14.50;64.90;;;;;;10230298;28;93459;-46
2023/12/28 16:38:14;;;;;;;;;;;14.60;65.00;;;;;;10223781;28;93505;-42
2023/12/28 16:43:15;;;;;;;;;;;14.50;64.80;;;;;;10211322;28;93813;-42
2023/12/28 16:48:18;;;;;;;;;;;14.60;64.90;;;;;;10226636;28;94093;-43
2023/12/28 16:53:20;;;;;;;;;;;14.60;64.90;;;;;;10225838;28;94379;-42
2023/12/28 16:58:21;;;;;;;;;;;14.60;64.80;;;;;;10226578;28;96409;-42
2023/12/28 17:03:23;;;;;;;;;;;14.60;64.80;;;;;;10231976;28;94422;-44
2023/12/28 17:08:26;;;;;;;;;;;14.60;64.90;;;;;;10223406;28;93082;-42
2023/12/28 17:13:27;;;;;;;;;;;14.50;64.80;;;;;;10235217;28;94404;-43
2023/12/28 17:18:29;;;;;;;;;;;14.50;64.90;;;;;;10237488;28;94441;-42
2023/12/28 17:23:35;;;;;;;;;;;14.50;64.90;;;;;;10231979;28;94431;-45
2023/12/28 17:28:40;;;;;;;;;;;14.50;65.00;;;;;;10229798;28;94442;-44
2023/12/28 17:33:42;;;;;;;;;;;14.60;64.90;;;;;;10234008;28;92676;-45
2023/12/28 17:38:45;;;;;;;;;;;14.60;65.00;;;;;;10231186;28;94742;-44
2023/12/28 17:43:49;;;;;;;;;;;14.60;64.90;;;;;;10238243;28;93474;-44
2023/12/28 17:48:52;;;;;;;;;;;14.50;64.90;;;;;;10227176;28;96827;-42
2023/12/28 17:53:54;;;;;;;;;;;14.60;64.90;;;;;;10220438;28;94418;-46
2023/12/28 17:58:55;;;;;;;;;;;14.60;64.80;;;;;;10231819;28;93363;-43
2023/12/28 18:03:57;;;;;;;;;;;14.60;64.80;;;;;;10224082;28;93487;-43
2023/12/28 18:08:59;;;;;;;;;;;14.60;64.80;;;;;;10243488;28;93660;-48
2023/12/28 18:14:03;;;;;;;;;;;14.60;64.70;;;;;;10218398;28;113964;-46
2023/12/28 18:19:05;;;;;;;;;;;14.60;64.70;;;;;;10208933;28;93618;-46
2023/12/28 18:24:07;;;;;;;;;;;14.70;64.60;;;;;;10230162;28;93756;-43
2023/12/28 18:29:09;;;;;;;;;;;14.70;64.60;;;;;;10230090;28;94550;-43
2023/12/28 18:34:11;;;;;;;;;;;14.70;64.50;;;;;;10221544;28;93599;-43
2023/12/28 18:39:15;;;;;;;;;;;14.60;64.50;;;;;;10222874;28;96926;-52
2023/12/28 18:44:17;;;;;;;;;;;14.60;64.50;;;;;;10220550;28;94569;-44
2023/12/28 18:49:19;;;;;;;;;;;14.60;64.60;;;;;;10223522;28;93463;-43
2023/12/28 18:54:21;;;;;;;;;;;14.60;65.60;;;;;;10223005;28;93592;-42
2023/12/28 18:59:24;;;;;;;;;;;14.60;64.70;;;;;;10208571;28;94445;-43
2023/12/28 19:04:25;;;;;;;;;;;14.60;64.70;;;;;;10224106;28;93396;-45
2023/12/28 19:09:27;;;;;;;;;;;14.60;64.70;;;;;;10221780;28;94767;-41
2023/12/28 19:14:29;;;;;;;;;;;14.60;64.80;;;;;;10218330;28;91996;-44
2023/12/28 19:19:31;;;;;;;;;;;14.60;64.70;;;;;;10239234;28;93471;-44
2023/12/28 19:24:33;;;;;;;;;;;14.50;64.70;;;;;;10234718;28;93439;-44
2023/12/28 19:29:35;;;;;;;;;;;14.60;65.80;;;;;;10226294;28;97195;-45
2023/12/28 19:34:37;;;;;;;;;;;14.60;64.80;;;;;;10248939;28;93476;-47
2023/12/28 19:39:39;;;;;;;;;;;14.60;64.80;;;;;;10229692;28;94281;-41
2023/12/28 19:44:40;;;;;;;;;;;14.60;64.70;;;;;;10223421;28;93444;-46
2023/12/28 19:49:42;;;;;;;;;;;14.50;64.80;;;;;;10218583;28;93448;-43
2023/12/28 19:54:44;;;;;;;;;;;14.60;64.90;;;;;;10237566;28;92817;-44
2023/12/28 19:59:47;;;;;;;;;;;14.60;64.70;;;;;;10233747;28;93546;-44
2023/12/28 20:04:49;;;;;;;;;;;14.60;64.70;;;;;;10230308;28;93987;-44
2023/12/28 20:09:51;;;;;;;;;;;14.60;64.60;;;;;;10229692;28;94367;-43
2023/12/28 20:14:53;;;;;;;;;;;14.60;64.60;;;;;;10229168;28;93407;-46
2023/12/28 20:19:59;;;;;;;;;;;14.60;64.60;;;;;;10219098;28;95771;-44
2023/12/28 20:25:02;;;;;;;;;;;14.50;64.60;;;;;;10231705;28;93595;-43
2023/12/28 20:30:04;;;;;;;;;;;14.60;64.70;;;;;;10248447;28;94514;-45
2023/12/28 20:35:06;;;;;;;;;;;14.60;64.70;;;;;;10225348;28;94053;-44
2023/12/28 20:40:08;;;;;;;;;;;14.60;64.80;;;;;;10232700;28;94124;-45
2023/12/28 20:45:10;;;;;;;;;;;14.50;64.80;;;;;;10221520;28;93756;-44
2023/12/28 20:50:12;;;;;;;;;;;14.60;64.80;;;;;;10233398;28;94561;-48
2023/12/28 20:55:14;;;;;;;;;;;14.50;64.80;;;;;;10221278;28;93638;-45
2023/12/28 21:00:16;;;;;;;;;;;14.50;64.80;;;;;;10231305;28;94968;-48
2023/12/28 21:05:18;;;;;;;;;;;14.50;64.80;;;;;;10213695;28;94662;-44
2023/12/28 21:10:20;;;;;;;;;;;14.50;64.80;;;;;;10230380;28;96895;-45
2023/12/28 21:15:21;;;;;;;;;;;14.50;64.90;;;;;;10225046;28;94616;-45
2023/12/28 21:20:26;;;;;;;;;;;14.50;64.80;;;;;;10227920;28;93497;-46
2023/12/28 21:25:28;;;;;;;;;;;14.50;64.80;;;;;;10212149;28;94507;-45
2023/12/28 21:30:31;;;;;;;;;;;14.50;64.90;;;;;;10232028;28;93954;-44
2023/12/28 21:35:33;;;;;;;;;;;14.50;65.90;;;;;;10225932;28;94412;-44
2023/12/28 21:40:36;;;;;;;;;;;14.60;64.90;;;;;;10213287;28;94002;-45
2023/12/28 21:45:38;;;;;;;;;;;14.60;64.80;;;;;;10225377;28;93189;-46
2023/12/28 21:50:40;;;;;;;;;;;14.60;64.80;;;;;;10212997;28;93644;-43
2023/12/28 21:55:41;;;;;;;;;;;14.60;64.80;;;;;;10221674;28;93430;-50
2023/12/28 22:00:43;;;;;;;;;;;14.60;64.70;;;;;;10228811;28;95933;-45
2023/12/28 22:05:45;;;;;;;;;;;14.60;64.90;;;;;;10209042;28;94312;-43
2023/12/28 22:10:47;;;;;;;;;;;14.60;64.90;;;;;;10229562;28;93566;-47
2023/12/28 22:15:56;;;;;;;;;;;14.60;64.90;;;;;;10223794;28;94893;-47
2023/12/28 22:20:58;;;;;;;;;;;14.60;64.90;;;;;;10219024;28;93332;-44
2023/12/28 22:25:59;;;;;;;;;;;14.60;64.90;;;;;;10225498;28;93451;-44
2023/12/28 22:31:01;;;;;;;;;;;14.60;64.90;;;;;;10221021;28;94616;-42
2023/12/28 22:36:04;;;;;;;;;;;14.60;64.90;;;;;;10228052;28;92241;-45
2023/12/28 22:41:06;;;;;;;;;;;14.60;64.90;;;;;;10222550;28;93787;-43
2023/12/28 22:46:12;;;;;;;;;;;14.60;64.90;;;;;;10235154;28;94401;-46
2023/12/28 22:51:13;;;;;;;;;;;14.60;65.00;;;;;;10234605;28;96886;-43
2023/12/28 22:56:15;;;;;;;;;;;14.50;65.00;;;;;;10236643;28;93450;-43
2023/12/28 23:01:19;;;;;;;;;;;14.60;65.10;;;;;;10233083;28;93312;-42
2023/12/28 23:06:21;;;;;;;;;;;14.50;65.00;;;;;;10237188;28;94794;-43
2023/12/28 23:11:22;;;;;;;;;;;14.60;65.00;;;;;;10231487;28;95142;-43
2023/12/28 23:16:24;;;;;;;;;;;14.60;64.60;;;;;;10222254;28;93427;-42
2023/12/28 23:21:26;;;;;;;;;;;14.60;64.10;;;;;;10230317;28;94902;-43
2023/12/28 23:26:28;;;;;;;;;;;14.60;63.60;;;;;;10231922;28;93835;-43
2023/12/28 23:31:30;;;;;;;;;;;14.60;63.30;;;;;;10220859;28;93810;-43
2023/12/28 23:36:31;;;;;;;;;;;14.60;62.90;;;;;;10228866;28;93521;-43
2023/12/28 23:41:33;;;;;;;;;;;14.70;62.60;;;;;;10231324;28;95790;-48
2023/12/28 23:46:38;;;;;;;;;;;14.70;62.40;;;;;;10249493;28;93483;-44
2023/12/28 23:51:39;;;;;;;;;;;14.60;62.20;;;;;;10228061;28;94408;-43
2023/12/28 23:56:41;;;;;;;;;;;14.60;62.30;;;;;;10221153;28;93447;-44
